Main page
METAR-TAF:

METAR-TAF

Airports :

Ibiza Airport

Ibiza, Spain

latitude: 38-52N, longitude: 001-23E, elevation: 7 m

Current weather observation

The report was made 31 minutes ago, at 12:00 UTC
Wind 10 kt from the South/Southwest, varying between South and Southwest
Temperature 27°C
Humidity 54%
Pressure 1015 hPa
Visibility 10 km or more
Few clouds at a height of 2000 ft

METAR: LEIB 211200Z 21010KT 170V230 9999 FEW020 27/17 Q1015 NOSIG

Time: 14:31 (12:31 UTC)

Forecast

The report was made 4 hours and 31 minutes ago, at 08:00 UTC
Forecast valid from 21 at 09 UTC to 22 at 09 UTC
Wind 10 kt from the West/Southwest
Visibility 10 km or more
Few clouds at a height of 2000 ft
Temporary
from 21 at 09 UTC to 21 at 12 UTC
Few clouds at a height of 2500 ft, Cumulonimbus.
Becoming
from 22 at 00 UTC to 22 at 02 UTC
Wind 6 kt from the South

TAF: LEIB 210800Z 2109/2209 25010KT 9999 FEW020 TX28/2112Z TN19/2205Z TEMPO 2109/2112 FEW025CB BECMG 2200/2202 18006KT

Weather observations and forecasts of more than 4000 airports (METAR and TAF reports).

The available stations are represented by yellow and red dots on the map.

Hover mouse over dot to see the name of the station.

Then click to see weather observations and forecasts.

To change the map : click on the green buttons with a black cross to zoom in, on the green button with a dash to zoom out, or on the green arrows for adjacent maps.


METAR-TAF: